Time;durP1;ratioP1;P1;durP2;ratioP2;P2;SDS_P1;SDS_P2;PMS_P1;PMS_P2;Temp;Humidity;BMP_temperature;BMP_pressure;BME280_temperature;BME280_humidity;BME280_pressure;Samples;Min_cycle;Max_cycle;Signal;HPM_P1;HPM_P2
2022/07/21 00:02:22;;;;;;;10.68;7.95;;;;;;;23.98;70.45;101636.56;5117798;27;20109;-51
2022/07/21 00:04:50;;;;;;;13.25;9.80;;;;;;;23.97;72.68;101634.94;5133481;27;20075;-52
2022/07/21 00:07:18;;;;;;;14.88;11.20;;;;;;;23.93;73.88;101633.97;5126480;27;20489;-53
2022/07/21 00:09:45;;;;;;;14.48;10.82;;;;;;;23.89;73.58;101638.63;5137170;27;20070;-54
2022/07/21 00:12:13;;;;;;;14.60;10.82;;;;;;;23.84;74.23;101622.13;5136935;27;20043;-54
2022/07/21 00:14:41;;;;;;;14.57;11.25;;;;;;;23.82;74.49;101619.66;5136884;27;20050;-53
2022/07/21 00:17:08;;;;;;;14.48;10.13;;;;;;;23.79;74.30;101615.59;5128263;27;20494;-55
2022/07/21 00:19:36;;;;;;;13.07;9.60;;;;;;;23.79;73.91;101634.28;5136869;27;20043;-51
2022/07/21 00:22:03;;;;;;;13.63;10.10;;;;;;;23.78;73.29;101627.06;5125367;27;20034;-52
2022/07/21 00:24:31;;;;;;;14.98;11.00;;;;;;;23.74;73.49;101629.72;5136177;27;20047;-51
2022/07/21 00:26:58;;;;;;;14.27;9.13;;;;;;;23.74;72.49;101628.88;5135019;27;20039;-54
2022/07/21 00:29:26;;;;;;;13.43;8.73;;;;;;;23.73;71.82;101624.44;5116272;27;20059;-55
2022/07/21 00:31:56;;;;;;;12.63;8.88;;;;;;;23.71;71.80;101624.78;5131992;27;20033;-53
2022/07/21 00:34:24;;;;;;;12.38;8.82;;;;;;;23.71;71.45;101633.13;5136678;27;20071;-52
2022/07/21 00:36:51;;;;;;;11.88;8.95;;;;;;;23.70;71.14;101625.94;5132965;27;20058;-51
2022/07/21 00:39:19;;;;;;;10.13;7.72;;;;;;;23.73;69.41;101624.44;5125301;27;20036;-50
2022/07/21 00:41:46;;;;;;;11.05;7.88;;;;;;;23.68;70.34;101617.09;5133565;27;20035;-51
2022/07/21 00:44:22;;;;;;;12.70;8.25;;;;;;;23.65;70.72;101617.78;5136458;27;20039;-50
2022/07/21 00:46:50;;;;;;;16.60;8.23;;;;;;;23.64;70.07;101610.56;5136420;27;20156;-49
2022/07/21 00:49:18;;;;;;;11.40;7.40;;;;;;;23.61;70.17;101605.69;5119829;27;20040;-51
2022/07/21 00:51:47;;;;;;;14.52;8.18;;;;;;;23.60;69.40;101609.66;5117241;27;20035;-51
2022/07/21 00:54:16;;;;;;;12.25;7.38;;;;;;;23.60;68.81;101609.66;5111568;27;20413;-49
2022/07/21 00:56:44;;;;;;;11.70;7.43;;;;;;;23.56;70.05;101606.72;5123254;27;20046;-52
2022/07/21 00:59:12;;;;;;;10.75;6.88;;;;;;;23.53;70.30;101609.38;5106570;27;20039;-51
2022/07/21 01:01:40;;;;;;;11.20;7.20;;;;;;;23.50;70.13;101605.28;5117221;27;20035;-51
2022/07/21 01:04:07;;;;;;;11.02;7.85;;;;;;;23.46;71.03;101600.75;5109714;27;20038;-54
2022/07/21 01:06:35;;;;;;;9.90;7.53;;;;;;;23.43;70.58;101601.38;5114913;27;20058;-51
2022/07/21 01:09:03;;;;;;;10.60;6.97;;;;;;;23.41;70.22;101607.31;5116938;27;20043;-50
2022/07/21 01:11:38;;;;;;;14.88;7.32;;;;;;;23.38;70.72;101603.25;5134345;27;20047;-53
2022/07/21 01:14:06;;;;;;;9.57;6.50;;;;;;;23.34;70.59;101591.16;5111999;27;20038;-50
2022/07/21 01:16:33;;;;;;;10.48;7.55;;;;;;;23.32;69.83;101601.78;5135406;27;20038;-50
2022/07/21 01:19:01;;;;;;;10.13;6.82;;;;;;;23.30;69.96;101595.75;5130103;27;20074;-52
2022/07/21 01:21:41;;;;;;;10.63;6.93;;;;;;;23.28;69.27;101600.00;5111179;27;20045;-51
2022/07/21 01:24:09;;;;;;;9.95;7.18;;;;;;;23.25;70.46;101595.94;5135862;27;20228;-50
2022/07/21 01:26:45;;;;;;;11.27;7.28;;;;;;;23.24;70.01;101604.63;5132891;27;20043;-52
2022/07/21 01:29:13;;;;;;;;;;;;;;;23.25;68.48;101597.91;5134815;27;20071;-50
2022/07/21 01:31:42;;;;;;;10.90;6.75;;;;;;;23.21;71.21;101592.22;5098241;28;19926;-54
2022/07/21 01:34:10;;;;;;;11.63;7.47;;;;;;;23.17;71.19;101586.50;5115654;27;20047;-50
2022/07/21 01:36:38;;;;;;;10.85;6.97;;;;;;;23.17;70.77;101592.06;5135323;27;20043;-51
2022/07/21 01:41:53;;;;;;;8.80;6.28;;;;;;;23.16;71.67;101584.03;5112703;27;20039;-52
2022/07/21 01:44:21;;;;;;;9.73;6.93;;;;;;;23.14;71.62;101575.25;5111003;27;20222;-52
2022/07/21 01:46:50;;;;;;;9.50;6.82;;;;;;;23.14;70.90;101580.81;5116842;27;20050;-53
2022/07/21 01:49:19;;;;;;;11.13;7.25;;;;;;;23.11;71.57;101581.44;5116240;27;20035;-55
2022/07/21 01:51:48;;;;;;;10.00;7.13;;;;;;;23.10;71.56;101585.41;5127483;27;20409;-51
2022/07/21 01:54:15;;;;;;;11.15;7.63;;;;;;;23.06;71.94;101584.44;5112764;27;20090;-55
2022/07/21 01:56:50;;;;;;;12.18;8.30;;;;;;;23.02;72.05;101577.91;5130849;27;20091;-49
2022/07/21 01:59:18;;;;;;;13.98;8.18;;;;;;;22.99;72.39;101584.13;5133954;27;20042;-52
2022/07/21 02:01:46;;;;;;;11.18;7.93;;;;;;;22.96;72.61;101580.84;5113693;27;20122;-56
2022/07/21 02:04:14;;;;;;;10.95;7.70;;;;;;;22.99;71.90;101584.13;5116695;27;20134;-51
2022/07/21 02:06:42;;;;;;;10.98;7.60;;;;;;;22.96;72.54;101597.50;5134212;27;20130;-51
2022/07/21 02:09:10;;;;;;;11.00;7.00;;;;;;;22.95;72.62;101589.53;5133179;27;20404;-52
2022/07/21 02:11:38;;;;;;;10.07;7.43;;;;;;;22.94;72.56;101583.13;5131247;27;20051;-51
2022/07/21 02:14:06;;;;;;;10.60;7.35;;;;;;;22.92;72.58;101585.44;5108723;27;20039;-53
2022/07/21 02:16:34;;;;;;;11.02;7.30;;;;;;;22.90;72.33;101587.75;5134376;27;20035;-53
2022/07/21 02:19:01;;;;;;;10.35;7.65;;;;;;;22.92;71.86;101596.56;5102793;27;20110;-50
2022/07/21 02:21:29;;;;;;;12.68;8.15;;;;;;;22.91;72.66;101599.66;5124172;27;20044;-50
2022/07/21 02:23:57;;;;;;;12.85;7.72;;;;;;;22.88;72.58;101583.66;5114996;27;20490;-53
2022/07/21 02:26:25;;;;;;;12.55;8.60;;;;;;;22.85;72.89;101590.72;5104696;27;20043;-50
2022/07/21 02:28:52;;;;;;;14.68;9.15;;;;;;;22.79;73.60;101597.59;5122685;27;20040;-51
2022/07/21 02:31:21;;;;;;;11.82;7.78;;;;;;;22.76;73.89;101592.69;5127212;27;20090;-53
2022/07/21 02:33:48;;;;;;;13.77;8.05;;;;;;;22.76;73.86;101601.84;5114977;27;20047;-50
2022/07/21 02:36:16;;;;;;;10.82;8.02;;;;;;;22.74;73.94;101595.81;5134264;27;20050;-53
2022/07/21 02:38:44;;;;;;;10.90;7.72;;;;;;;22.72;74.16;101580.63;5133534;27;20046;-54
2022/07/21 02:41:11;;;;;;;10.13;6.63;;;;;;;22.75;73.35;101571.59;5134106;27;20050;-50
2022/07/21 02:43:39;;;;;;;10.05;6.13;;;;;;;22.77;72.52;101566.53;5127791;27;20043;-50
2022/07/21 02:46:06;;;;;;;9.00;6.75;;;;;;;22.79;72.07;101577.34;5130575;27;20047;-53
2022/07/21 02:48:34;;;;;;;10.18;7.65;;;;;;;22.77;71.99;101567.34;5131277;27;20070;-52
2022/07/21 02:51:02;;;;;;;11.90;8.05;;;;;;;22.73;73.28;101571.16;5133301;27;20047;-54
2022/07/21 02:53:30;;;;;;;12.00;7.15;;;;;;;22.72;72.21;101569.50;5132034;27;20957;-52
2022/07/21 02:55:58;;;;;;;10.88;8.05;;;;;;;22.76;72.64;101568.50;5127804;27;20110;-53
2022/07/21 02:58:27;;;;;;;11.77;7.78;;;;;;;22.72;72.92;101566.72;5113734;28;20039;-49
2022/07/21 03:00:56;;;;;;;12.30;8.23;;;;;;;22.69;73.16;101564.63;5109688;28;20040;-52
2022/07/21 03:03:26;;;;;;;12.65;8.95;;;;;;;22.67;73.77;101566.91;5123300;28;20050;-51
2022/07/21 03:05:54;;;;;;;10.48;7.32;;;;;;;22.68;73.57;101574.09;5133696;28;20079;-51
2022/07/21 03:08:22;;;;;;;11.75;8.98;;;;;;;22.66;73.95;101571.66;5127795;28;20051;-52
2022/07/21 03:10:50;;;;;;;11.68;8.15;;;;;;;22.65;74.14;101572.78;5113109;28;20039;-51
2022/07/21 03:13:18;;;;;;;13.68;8.90;;;;;;;22.64;74.10;101576.72;5125700;28;20042;-53
2022/07/21 03:15:46;;;;;;;12.57;8.63;;;;;;;22.62;74.09;101580.97;5115809;28;20508;-52
2022/07/21 03:18:14;;;;;;;11.75;6.50;;;;;;;22.63;72.87;101572.31;5098765;28;20035;-51
2022/07/21 03:20:42;;;;;;;11.32;7.43;;;;;;;22.65;73.23;101571.97;5115910;28;20043;-51
2022/07/21 03:23:10;;;;;;;11.82;8.55;;;;;;;22.61;73.45;101568.22;5105351;28;20394;-51
2022/07/21 03:25:38;;;;;;;11.90;7.65;;;;;;;22.58;73.22;101572.47;5133477;28;20495;-54
2022/07/21 03:28:06;;;;;;;12.27;8.52;;;;;;;22.58;73.37;101572.47;5123323;28;20494;-51
2022/07/21 03:30:35;;;;;;;12.88;9.40;;;;;;;22.52;74.27;101560.75;5111461;28;20126;-51
2022/07/21 03:33:03;;;;;;;12.65;7.93;;;;;;;22.52;73.85;101555.19;5128193;28;20113;-49
2022/07/21 03:35:31;;;;;;;12.23;8.43;;;;;;;22.52;73.21;101571.84;5103068;28;20046;-52
2022/07/21 03:38:00;;;;;;;11.43;7.50;;;;;;;22.50;73.76;101574.16;5133122;28;20057;-51
2022/07/21 03:40:30;;;;;;;11.73;9.10;;;;;;;22.48;74.51;101579.22;5115649;28;20148;-54
2022/07/21 03:42:59;;;;;;;15.32;10.02;;;;;;;22.46;74.28;101572.34;5114466;28;20493;-54
2022/07/21 03:45:31;;;;;;;14.27;9.85;;;;;;;22.44;75.12;101575.47;5111943;28;20035;-51
2022/07/21 03:48:00;;;;;;;11.55;8.73;;;;;;;22.45;74.82;101590.97;5128203;28;20109;-52
2022/07/21 03:50:29;;;;;;;12.95;9.48;;;;;;;22.44;75.08;101589.38;5115116;28;20039;-52
2022/07/21 03:52:57;;;;;;;13.05;9.10;;;;;;;22.49;73.94;101585.59;5115545;28;20035;-50
2022/07/21 03:55:25;;;;;;;13.93;10.07;;;;;;;22.45;74.85;101585.44;5129283;28;20414;-51
2022/07/21 03:57:55;;;;;;;17.90;12.40;;;;;;;22.43;75.46;101584.13;5101349;28;20035;-52
2022/07/21 04:00:32;;;;;;;15.23;11.25;;;;;;;22.42;75.62;101582.50;5133581;28;20050;-49
2022/07/21 04:03:00;;;;;;;16.13;12.10;;;;;;;22.40;75.50;101580.06;5131788;28;20051;-52
2022/07/21 04:05:29;;;;;;;17.17;13.13;;;;;;;22.39;76.06;101572.03;5113843;27;20135;-50
2022/07/21 04:07:57;;;;;;;17.48;12.88;;;;;;;22.35;76.07;101574.69;5100571;27;20508;-49
2022/07/21 04:10:27;;;;;;;13.43;10.23;;;;;;;22.35;75.73;101576.66;5137419;27;20086;-49
2022/07/21 04:12:59;;;;;;;15.02;11.20;;;;;;;22.30;76.15;101575.66;5136852;27;20501;-53
2022/07/21 04:15:27;;;;;;;18.02;13.15;;;;;;;22.30;76.10;101578.44;5111892;28;20059;-50
2022/07/21 04:17:55;;;;;;;16.67;12.85;;;;;;;22.28;76.63;101574.38;5135539;27;20046;-54
2022/07/21 04:20:23;;;;;;;15.13;10.98;;;;;;;22.28;76.33;101577.94;5136813;27;20050;-55
2022/07/21 04:22:52;;;;;;;15.98;11.68;;;;;;;22.28;76.47;101577.94;5136944;27;20039;-50
2022/07/21 04:25:20;;;;;;;15.95;11.35;;;;;;;22.30;75.90;101574.84;5134588;27;20044;-51
2022/07/21 04:27:48;;;;;;;16.45;12.15;;;;;;;22.31;76.06;101570.94;5111171;28;20066;-51
2022/07/21 04:30:19;;;;;;;16.92;11.45;;;;;;;22.30;75.84;101572.09;5132959;27;20036;-54
2022/07/21 04:32:47;;;;;;;15.95;11.45;;;;;;;22.27;76.73;101572.72;5118762;27;20050;-56
2022/07/21 04:35:15;;;;;;;14.88;9.98;;;;;;;22.29;76.25;101573.22;5101428;27;20469;-53
2022/07/21 04:37:43;;;;;;;14.75;10.05;;;;;;;22.29;76.28;101574.03;5126227;27;20489;-53
2022/07/21 04:40:12;;;;;;;17.83;12.65;;;;;;;22.27;75.93;101578.28;5132969;27;20046;-55
2022/07/21 04:42:40;;;;;;;14.27;10.35;;;;;;;22.27;75.95;101581.03;5103837;27;20035;-52
2022/07/21 04:45:09;;;;;;;14.00;9.35;;;;;;;22.29;74.87;101579.56;5117360;27;20512;-53
2022/07/21 04:47:50;;;;;;;15.90;11.38;;;;;;;22.30;74.20;101575.66;5131533;27;20042;-51
2022/07/21 04:50:21;;;;;;;17.65;10.80;;;;;;;22.30;74.87;101575.66;5136265;27;20046;-51
2022/07/21 04:52:49;;;;;;;18.20;10.77;;;;;;;22.25;75.77;101580.59;5102001;27;20405;-54
2022/07/21 04:55:17;;;;;;;13.95;9.98;;;;;;;22.19;76.29;101574.34;5117226;27;20047;-53
2022/07/21 04:57:47;;;;;;;14.55;8.85;;;;;;;22.17;75.85;101576.63;5131338;27;20050;-53
2022/07/21 05:00:17;;;;;;;15.43;10.57;;;;;;;22.19;76.05;101576.31;5135838;27;20049;-52
2022/07/21 05:02:46;;;;;;;12.55;8.98;;;;;;;22.20;75.38;101586.25;5135767;27;20039;-52
2022/07/21 05:05:13;;;;;;;16.40;10.35;;;;;;;22.16;76.96;101586.09;5112872;27;20047;-53
2022/07/21 05:07:42;;;;;;;13.90;9.25;;;;;;;22.10;78.18;101579.91;5131043;27;20104;-51
2022/07/21 05:10:13;;;;;;;14.05;8.95;;;;;;;22.10;77.57;101588.25;5117334;27;20035;-53
2022/07/21 05:12:40;;;;;;;18.20;9.63;;;;;;;22.12;77.53;101590.69;5116326;27;20039;-52
2022/07/21 05:15:11;;;;;;;15.38;9.63;;;;;;;22.16;77.55;101586.09;5115257;27;20039;-52
2022/07/21 05:17:39;;;;;;;16.35;10.27;;;;;;;22.17;77.40;101584.13;5130317;27;20043;-53
2022/07/21 05:20:08;;;;;;;15.07;9.02;;;;;;;22.20;77.45;101580.69;5124259;27;20031;-49
2022/07/21 05:22:36;;;;;;;15.38;9.65;;;;;;;22.20;77.50;101580.69;5124908;27;20043;-52
2022/07/21 05:25:05;;;;;;;14.82;8.70;;;;;;;22.20;77.76;101580.69;5134288;27;20035;-53
2022/07/21 05:27:33;;;;;;;12.73;8.98;;;;;;;22.18;77.97;101585.78;5131974;27;20044;-52
2022/07/21 05:30:01;;;;;;;13.55;8.93;;;;;;;22.16;78.05;101588.06;5110464;27;20527;-49
2022/07/21 05:32:28;;;;;;;13.73;8.88;;;;;;;22.16;77.69;101583.34;5109830;27;20065;-49
2022/07/21 05:34:56;;;;;;;16.13;9.60;;;;;;;22.18;77.85;101577.47;4416430;27;10000611;-50
2022/07/21 05:37:24;;;;;;;13.55;8.75;;;;;;;22.09;77.49;101572.72;5096829;27;20070;-50
2022/07/21 05:39:51;;;;;;;14.88;9.27;;;;;;;22.09;77.65;101569.94;5131394;27;20050;-50
2022/07/21 05:42:19;;;;;;;13.70;8.27;;;;;;;22.12;77.70;101568.47;5131601;27;20050;-53
2022/07/21 05:44:47;;;;;;;13.48;7.60;;;;;;;22.13;77.57;101565.38;5121594;27;20486;-51
2022/07/21 05:47:14;;;;;;;13.32;9.40;;;;;;;22.12;77.71;101569.28;5130349;27;20047;-51
2022/07/21 05:49:42;;;;;;;16.60;8.45;;;;;;;22.08;78.08;101564.72;5131605;27;20047;-51
2022/07/21 05:52:09;;;;;;;15.68;7.72;;;;;;;22.08;77.68;101573.88;5131626;27;20508;-52
2022/07/21 05:54:37;;;;;;;12.93;9.02;;;;;;;22.05;78.03;101565.38;5130971;27;20486;-49
2022/07/21 05:57:06;;;;;;;15.38;9.05;;;;;;;22.05;78.09;101577.28;5116007;27;20036;-49
2022/07/21 05:59:33;;;;;;;15.10;9.27;;;;;;;22.03;78.32;101562.94;5124995;27;20074;-52
2022/07/21 06:02:01;;;;;;;11.68;7.22;;;;;;;22.08;77.57;101567.47;5131692;27;20039;-48
2022/07/21 06:04:29;;;;;;;18.05;8.40;;;;;;;22.13;77.00;101562.59;5131542;27;20082;-46
2022/07/21 06:06:57;;;;;;;14.90;8.13;;;;;;;22.16;77.38;101563.09;5120022;27;20096;-49
2022/07/21 06:09:24;;;;;;;11.32;7.90;;;;;;;22.21;76.28;101572.09;5100489;28;20039;-48
2022/07/21 06:11:52;;;;;;;18.40;8.40;;;;;;;22.22;76.48;101568.16;5122649;27;20042;-52
2022/07/21 06:14:20;;;;;;;15.60;8.10;;;;;;;22.19;76.72;101565.19;5131449;27;20038;-57
2022/07/21 06:16:48;;;;;;;13.55;8.43;;;;;;;22.20;76.68;101569.59;5130302;27;20039;-53
2022/07/21 06:19:16;;;;;;;15.07;8.65;;;;;;;22.19;77.01;101566.00;5132001;27;20470;-55
2022/07/21 06:21:44;;;;;;;16.65;9.07;;;;;;;22.19;76.94;101567.97;5118214;27;20131;-52
2022/07/21 06:24:13;;;;;;;16.17;9.60;;;;;;;22.15;77.21;101567.81;5112359;27;20440;-50
2022/07/21 06:26:41;;;;;;;15.43;9.05;;;;;;;22.13;76.91;101562.59;5130986;27;20058;-55
2022/07/21 06:29:09;;;;;;;17.45;9.07;;;;;;;22.16;76.41;101566.69;5131721;27;20047;-52
2022/07/21 06:31:36;;;;;;;15.20;9.13;;;;;;;22.18;75.83;101571.91;5115911;27;20043;-54
2022/07/21 06:34:04;;;;;;;16.75;11.13;;;;;;;22.13;76.71;101573.69;5112843;27;20040;-52
2022/07/21 06:36:32;;;;;;;16.38;10.27;;;;;;;22.16;76.12;101577.78;5130706;27;20066;-52
2022/07/21 06:39:00;;;;;;;18.52;10.98;;;;;;;22.19;75.72;101581.84;5131699;27;20066;-50
2022/07/21 06:41:28;;;;;;;25.73;19.17;;;;;;;22.20;75.59;101586.25;5111475;27;20057;-46
2022/07/21 06:43:55;;;;;;;22.48;16.58;;;;;;;22.21;75.43;101580.41;5132279;27;20053;-47
2022/07/21 06:46:24;;;;;;;14.82;10.40;;;;;;;22.23;75.67;101580.09;5131762;27;20051;-47
2022/07/21 06:48:51;;;;;;;19.75;9.13;;;;;;;22.28;75.14;101574.38;5126783;27;20044;-47
2022/07/21 06:51:19;;;;;;;15.35;10.15;;;;;;;22.37;74.81;101577.09;5113450;27;20039;-47
2022/07/21 06:53:47;;;;;;;17.95;11.55;;;;;;;22.41;74.55;101576.13;5127440;27;20042;-49
2022/07/21 06:56:16;;;;;;;13.43;10.13;;;;;;;22.43;74.37;101579.38;5128699;27;20054;-53
2022/07/21 06:58:44;;;;;;;17.20;11.13;;;;;;;22.45;73.91;101571.53;5130588;27;20862;-57
2022/07/21 07:01:18;;;;;;;18.48;11.10;;;;;;;22.44;73.96;101586.59;5129116;28;20066;-55
2022/07/21 07:03:46;;;;;;;20.67;12.07;;;;;;;22.43;74.35;101584.13;5126800;28;20409;-50
2022/07/21 07:06:15;;;;;;;21.13;12.30;;;;;;;22.43;74.31;101584.13;5105602;28;20047;-49
2022/07/21 07:08:43;;;;;;;21.55;12.57;;;;;;;22.40;75.33;101585.63;5091378;28;20464;-49
2022/07/21 07:11:12;;;;;;;21.40;13.75;;;;;;;22.37;75.22;101580.72;5109311;28;20557;-54
2022/07/21 07:13:39;;;;;;;26.85;13.80;;;;;;;22.36;74.87;101583.81;5133684;28;20043;-48
2022/07/21 07:16:22;;;;;;;20.48;12.27;;;;;;;22.36;74.16;101579.06;5133513;28;20084;-51
2022/07/21 07:18:50;;;;;;;19.90;13.40;;;;;;;22.38;73.94;101578.75;5131172;28;20099;-53
2022/07/21 07:21:18;;;;;;;20.23;12.75;;;;;;;22.39;74.69;101588.72;5133661;28;20035;-51
2022/07/21 07:23:46;;;;;;;46.63;19.08;;;;;;;22.39;75.60;101588.72;5133798;28;20043;-54
2022/07/21 07:26:14;;;;;;;26.40;14.55;;;;;;;22.35;75.35;101571.91;5125684;28;20101;-51
2022/07/21 07:28:41;;;;;;;26.45;14.25;;;;;;;22.35;75.78;101580.22;5113512;28;20039;-53
2022/07/21 07:31:09;;;;;;;25.48;14.65;;;;;;;22.32;76.61;101578.94;5128475;28;20414;-52
2022/07/21 07:33:36;;;;;;;21.75;13.93;;;;;;;22.32;76.01;101587.25;5133727;28;20047;-52
2022/07/21 07:36:04;;;;;;;25.73;14.25;;;;;;;22.35;75.10;101596.91;5133659;28;20115;-50
2022/07/21 07:38:32;;;;;;;22.20;13.75;;;;;;;22.33;74.98;101600.00;5115563;28;20043;-51
2022/07/21 07:41:00;;;;;;;25.42;15.43;;;;;;;22.30;75.84;101589.56;5137385;27;20152;-49
2022/07/21 07:43:28;;;;;;;38.20;15.98;;;;;;;22.26;76.09;101596.91;5112960;27;20050;-55
2022/07/21 07:45:56;;;;;;;25.33;15.18;;;;;;;22.21;76.77;101594.28;5137322;27;20035;-52
2022/07/21 07:48:23;;;;;;;23.27;14.43;;;;;;;22.12;76.99;101591.47;5137630;27;20466;-50
2022/07/21 07:50:51;;;;;;;23.23;13.50;;;;;;;22.12;77.15;101593.44;5136768;27;20039;-53
2022/07/21 07:53:19;;;;;;;26.85;13.23;;;;;;;22.13;77.42;101593.13;5135421;27;20035;-55
2022/07/21 07:55:46;;;;;;;20.02;13.13;;;;;;;22.18;76.86;101588.56;5119084;27;20503;-53
2022/07/21 07:58:14;;;;;;;23.30;13.43;;;;;;;22.20;77.26;101592.69;5137511;27;20039;-56
2022/07/21 08:00:41;;;;;;;21.42;13.88;;;;;;;22.19;77.20;101591.00;5137678;27;20409;-56
2022/07/21 08:03:22;;;;;;;19.95;12.23;;;;;;;22.16;77.15;101602.75;5110740;27;20063;-55
2022/07/21 08:05:50;;;;;;;17.58;11.75;;;;;;;22.18;76.25;101603.25;5136914;27;20080;-52
2022/07/21 08:08:17;;;;;;;20.27;11.82;;;;;;;22.18;76.44;101608.00;5137463;27;20046;-53
2022/07/21 08:10:46;;;;;;;18.73;12.52;;;;;;;22.13;77.06;101607.00;5136569;27;20126;-50
2022/07/21 08:13:15;;;;;;;18.27;12.38;;;;;;;22.07;77.65;101611.09;5118621;27;20508;-52
2022/07/21 08:15:43;;;;;;;21.33;12.98;;;;;;;22.08;77.27;101615.50;5107241;27;20046;-49
2022/07/21 08:18:11;;;;;;;19.33;10.35;;;;;;;22.00;77.72;101604.41;5136607;27;20400;-49
2022/07/21 08:20:39;;;;;;;16.70;11.75;;;;;;;21.92;78.53;101608.81;5136280;27;20041;-49
2022/07/21 08:23:07;;;;;;;15.95;9.63;;;;;;;21.94;78.56;101608.50;5135625;27;20033;-51
2022/07/21 08:25:35;;;;;;;17.10;10.15;;;;;;;21.98;78.29;101617.78;5136933;27;20508;-52
2022/07/21 08:28:03;;;;;;;13.90;9.27;;;;;;;21.98;78.04;101620.56;5132788;27;20122;-53
2022/07/21 08:30:31;;;;;;;15.25;8.02;;;;;;;21.95;78.03;101619.25;5117735;27;20035;-53
2022/07/21 08:32:59;;;;;;;12.45;7.03;;;;;;;21.95;78.16;101619.25;5115882;27;20043;-54
2022/07/21 08:35:27;;;;;;;11.63;6.80;;;;;;;21.99;78.37;101614.69;5117724;27;20485;-49
2022/07/21 08:37:59;;;;;;;11.02;6.63;;;;;;;21.95;80.62;101624.00;5136443;27;20043;-49
2022/07/21 08:40:29;;;;;;;11.52;5.57;;;;;;;21.86;82.29;101618.41;5130030;27;20039;-51
2022/07/21 08:42:57;;;;;;;8.25;4.63;;;;;;;21.77;84.08;101626.75;5131514;27;20039;-52
2022/07/21 08:45:27;;;;;;;9.50;5.30;;;;;;;21.74;85.43;101624.59;5135498;27;20078;-52
2022/07/21 08:47:57;;;;;;;9.65;4.95;;;;;;;21.72;85.88;101618.59;5130515;27;20066;-49
2022/07/21 08:50:31;;;;;;;9.70;4.70;;;;;;;21.72;85.05;101621.38;5136150;27;20055;-52
2022/07/21 08:52:59;;;;;;;9.88;5.40;;;;;;;21.69;85.84;101611.75;5128701;27;20470;-50
2022/07/21 08:55:32;;;;;;;7.80;4.40;;;;;;;21.67;85.44;101610.41;5110925;28;20118;-51
2022/07/21 08:58:00;;;;;;;10.40;5.70;;;;;;;21.67;85.71;101611.25;5100807;27;20032;-50
2022/07/21 09:00:28;;;;;;;9.55;6.40;;;;;;;21.64;86.95;101611.88;5117579;27;20493;-53
2022/07/21 09:03:22;;;;;;;10.75;6.00;;;;;;;21.64;84.77;101609.09;5135857;27;20426;-50
2022/07/21 09:06:12;;;;;;;9.18;5.90;;;;;;;21.66;85.35;101612.38;5124554;27;20071;-49
2022/07/21 09:08:42;;;;;;;13.07;5.63;;;;;;;21.65;86.69;101609.94;5123253;27;20039;-53
2022/07/21 09:11:15;;;;;;;8.63;5.13;;;;;;;21.64;86.56;101609.09;5135903;27;20047;-52
2022/07/21 09:13:46;;;;;;;8.38;5.25;;;;;;;21.63;87.44;101606.66;5135791;27;20429;-55
2022/07/21 09:16:14;;;;;;;7.88;4.88;;;;;;;21.65;87.68;101605.19;5135531;27;20489;-54
2022/07/21 09:18:52;;;;;;;9.65;4.60;;;;;;;21.70;85.94;101598.69;5123281;27;20444;-58
2022/07/21 09:21:20;;;;;;;8.25;4.93;;;;;;;21.73;86.46;101605.53;5128555;27;20205;-52
2022/07/21 09:23:47;;;;;;;8.07;4.65;;;;;;;21.75;86.77;101609.63;5121412;27;20039;-54
2022/07/21 09:26:15;;;;;;;6.45;4.18;;;;;;;21.76;87.26;101607.66;5117670;27;20058;-51
2022/07/21 09:28:43;;;;;;;6.88;4.28;;;;;;;21.74;87.65;101613.50;5117404;27;20504;-53
2022/07/21 09:31:12;;;;;;;8.45;4.47;;;;;;;21.72;88.16;101610.28;5109819;27;20065;-47
2022/07/21 09:33:45;;;;;;;7.07;4.53;;;;;;;21.74;87.90;101623.78;5135613;27;20397;-53
2022/07/21 09:36:17;;;;;;;6.82;4.30;;;;;;;21.73;87.60;101627.72;5117253;27;20489;-52
2022/07/21 09:38:51;;;;;;;5.78;4.05;;;;;;;21.74;87.21;101626.56;5134486;27;20043;-53
2022/07/21 09:41:21;;;;;;;5.88;4.00;;;;;;;21.70;87.94;101635.56;5134867;27;20077;-52
2022/07/21 09:43:51;;;;;;;6.18;4.18;;;;;;;21.68;88.76;101637.81;5092575;27;20057;-52
2022/07/21 09:46:21;;;;;;;5.45;4.00;;;;;;;21.66;88.62;101633.75;5134548;27;20493;-53
2022/07/21 09:48:52;;;;;;;6.20;4.00;;;;;;;21.62;88.35;101633.59;5134189;27;20067;-53
2022/07/21 09:51:43;;;;;;;6.15;3.85;;;;;;;21.58;89.33;101637.34;5120693;27;20084;-51
2022/07/21 09:54:12;;;;;;;6.13;3.85;;;;;;;21.54;89.20;101634.38;5114262;27;20080;-49
2022/07/21 09:56:45;;;;;;;7.55;4.18;;;;;;;21.51;89.66;101640.56;5130357;27;20039;-52
2022/07/21 09:59:13;;;;;;;5.13;3.67;;;;;;;21.51;90.04;101642.53;5115771;27;20088;-53
2022/07/21 10:01:41;;;;;;;7.82;3.97;;;;;;;21.50;89.99;101633.38;5135030;27;20035;-53
2022/07/21 10:04:10;;;;;;;5.82;3.78;;;;;;;21.50;89.40;101641.69;5117108;27;20118;-50
2022/07/21 10:06:39;;;;;;;5.80;4.13;;;;;;;21.49;89.93;101651.16;5124907;27;20031;-51
2022/07/21 10:09:08;;;;;;;9.25;4.72;;;;;;;21.47;89.75;101643.16;5121070;27;20043;-51
2022/07/21 10:11:41;;;;;;;7.32;4.25;;;;;;;21.45;90.16;101651.00;5126790;27;20531;-51
2022/07/21 10:14:12;;;;;;;6.00;3.85;;;;;;;21.40;89.95;101647.53;5092747;28;20127;-54
2022/07/21 10:16:40;;;;;;;5.18;3.55;;;;;;;21.36;91.04;101652.06;5083255;27;20031;-51
2022/07/21 10:19:27;;;;;;;5.88;3.63;;;;;;;21.31;90.11;101655.81;5134335;27;20039;-51
2022/07/21 10:22:39;;;;;;;5.93;3.75;;;;;;;21.28;89.95;101661.97;5131387;27;20048;-53
2022/07/21 10:25:07;;;;;;;5.10;3.42;;;;;;;21.27;91.04;101668.66;5107206;27;20121;-53
2022/07/21 10:27:34;;;;;;;5.65;3.25;;;;;;;21.30;90.43;101662.47;5134287;27;20122;-52
2022/07/21 10:30:42;;;;;;;5.60;3.03;;;;;;;21.33;89.01;101669.34;5133106;27;20490;-51
2022/07/21 10:33:10;;;;;;;4.47;3.33;;;;;;;21.31;89.99;101677.16;5131885;27;20397;-54
2022/07/21 10:35:46;;;;;;;6.57;3.55;;;;;;;21.27;88.81;101671.44;5123867;27;20038;-52
2022/07/21 10:38:33;;;;;;;5.85;3.20;;;;;;;21.22;88.13;101674.38;4422898;27;10000723;-53
2022/07/21 10:41:02;;;;;;;4.75;3.17;;;;;;;21.14;88.78;101681.50;5112318;27;20039;-51
2022/07/21 10:43:30;;;;;;;5.07;2.80;;;;;;;21.12;89.11;101678.22;5111000;27;20031;-53
2022/07/21 10:45:59;;;;;;;5.18;2.97;;;;;;;21.13;89.56;101688.16;5131071;27;20126;-54
2022/07/21 10:48:42;;;;;;;6.05;3.65;;;;;;;21.13;89.20;101688.16;5131104;27;20039;-53
2022/07/21 10:51:11;;;;;;;6.05;3.30;;;;;;;21.06;89.62;101690.56;5127454;27;20047;-49
2022/07/21 10:53:39;;;;;;;4.50;3.00;;;;;;;21.03;89.92;101689.25;5127545;27;20055;-52
2022/07/21 10:56:08;;;;;;;4.97;3.10;;;;;;;21.04;89.65;101690.88;5126152;28;20505;-53
2022/07/21 10:58:39;;;;;;;5.97;3.65;;;;;;;21.03;89.72;101694.81;5099907;28;20050;-51
2022/07/21 11:01:24;;;;;;;4.47;3.10;;;;;;;21.05;89.17;101697.28;5131235;27;20050;-50
2022/07/21 11:04:11;;;;;;;;;;;;;;;21.05;87.26;101691.72;5130303;28;20054;-48
2022/07/21 11:06:40;;;;;;;4.47;2.97;;;;;;;21.04;89.74;101699.19;5129763;28;20383;-55
2022/07/21 11:09:16;;;;;;;5.15;2.97;;;;;;;21.06;89.96;101698.88;5126290;28;20570;-48
2022/07/21 11:11:46;;;;;;;8.43;3.60;;;;;;;21.10;89.60;101699.91;5131040;28;20031;-52
2022/07/21 11:14:15;;;;;;;5.18;3.17;;;;;;;21.10;89.97;101693.53;5130382;27;20051;-52
2022/07/21 11:16:43;;;;;;;7.13;3.55;;;;;;;21.10;89.63;101696.31;5101225;27;20039;-49
2022/07/21 11:19:49;;;;;;;6.78;4.43;;;;;;;21.08;88.86;101693.84;5124161;27;20047;-53
2022/07/21 11:22:25;;;;;;;7.13;4.00;;;;;;;21.05;89.57;101697.28;5112447;27;20047;-50
2022/07/21 11:25:03;;;;;;;7.22;4.03;;;;;;;21.06;89.23;101698.88;5116473;27;20743;-52
2022/07/21 11:27:33;;;;;;;7.15;3.90;;;;;;;21.02;89.79;101703.44;5130009;27;20035;-52
2022/07/21 11:30:03;;;;;;;6.50;3.90;;;;;;;20.94;90.38;101707.78;5095232;27;20049;-56
2022/07/21 11:32:31;;;;;;;6.38;3.67;;;;;;;20.92;90.54;101698.16;5134579;27;20043;-55